createdAt,value
2023-04-07T00:02:08.968Z,87.40
2023-04-07T00:07:07.537Z,87.20
2023-04-07T00:12:06.103Z,87.20
2023-04-07T00:17:06.036Z,88.80
2023-04-07T00:22:04.948Z,87.80
2023-04-07T00:27:03.570Z,87.50
2023-04-07T00:32:02.042Z,89.00
2023-04-07T00:37:01.856Z,89.10
2023-04-07T00:42:00.348Z,89.70
2023-04-07T00:46:58.848Z,88.80
2023-04-07T00:51:58.653Z,89.20
2023-04-07T00:56:59.096Z,88.80
2023-04-07T01:02:04.491Z,89.20
2023-04-07T01:07:06.980Z,88.00
2023-04-07T01:12:22.727Z,88.30
2023-04-07T01:17:23.940Z,88.50
2023-04-07T01:22:28.058Z,87.30
2023-04-07T01:27:38.168Z,86.80
2023-04-07T01:32:41.072Z,86.90
2023-04-07T01:44:35.606Z,86.10
2023-04-07T01:49:36.922Z,84.40
2023-04-07T01:54:35.891Z,88.10
2023-04-07T01:59:34.281Z,86.80
2023-04-07T02:04:41.564Z,88.00
2023-04-07T02:09:41.754Z,88.70
2023-04-07T02:14:41.377Z,87.80
2023-04-07T02:19:45.548Z,87.40
2023-04-07T02:24:44.065Z,90.10
2023-04-07T02:29:42.590Z,88.30
2023-04-07T02:34:40.631Z,89.30
2023-04-07T02:39:40.856Z,87.60
2023-04-07T02:44:39.202Z,87.70
2023-04-07T02:49:37.263Z,87.60
2023-04-07T02:54:37.936Z,88.70
2023-04-07T02:59:37.865Z,88.10
2023-04-07T03:04:36.569Z,88.20
2023-04-07T03:09:35.717Z,87.90
2023-04-07T03:14:34.213Z,89.20
2023-04-07T03:19:34.711Z,87.80
2023-04-07T03:24:33.372Z,89.90
2023-04-07T03:29:34.121Z,88.60
2023-04-07T03:34:37.363Z,89.30
2023-04-07T03:39:37.683Z,90.10
2023-04-07T03:44:46.683Z,89.90
2023-04-07T03:49:46.729Z,89.40
2023-04-07T03:54:45.018Z,89.40
2023-04-07T03:59:43.620Z,88.60
2023-04-07T04:04:42.167Z,88.70
2023-04-07T04:09:43.867Z,89.20
2023-04-07T04:14:43.774Z,89.50
2023-04-07T04:19:44.028Z,90.30
2023-04-07T04:24:51.688Z,90.50
2023-04-07T04:29:50.461Z,90.40
2023-04-07T04:34:55.839Z,90.30
2023-04-07T04:39:56.404Z,90.20
2023-04-07T04:44:56.796Z,90.30
2023-04-07T04:49:56.644Z,90.20
2023-04-07T04:54:57.287Z,90.20
2023-04-07T04:59:57.640Z,90.00
2023-04-07T05:04:56.303Z,90.20
2023-04-07T05:10:00.394Z,90.40
2023-04-07T05:14:59.153Z,90.70
2023-04-07T05:19:57.804Z,89.50
2023-04-07T05:25:08.770Z,90.50
2023-04-07T05:30:09.316Z,90.90
2023-04-07T05:35:08.868Z,90.90
2023-04-07T05:40:15.840Z,90.80
2023-04-07T05:45:16.342Z,91.00
2023-04-07T05:50:20.300Z,91.40
2023-04-07T05:55:22.311Z,91.10
2023-04-07T06:00:22.320Z,91.30
2023-04-07T06:05:31.281Z,91.20
2023-04-07T06:10:32.209Z,91.20
2023-04-07T06:15:30.741Z,91.40
2023-04-07T06:20:29.233Z,91.50
2023-04-07T06:25:30.453Z,92.00
2023-04-07T06:30:28.672Z,91.50
2023-04-07T06:35:28.812Z,91.90
2023-04-07T06:40:27.278Z,90.60
2023-04-07T06:45:27.134Z,91.10
2023-04-07T06:50:25.906Z,90.70
2023-04-07T06:55:24.072Z,91.40
2023-04-07T07:00:23.321Z,91.10
2023-04-07T07:05:23.504Z,90.90
2023-04-07T07:10:23.127Z,90.90
2023-04-07T07:15:21.574Z,89.80
2023-04-07T07:20:20.291Z,90.10
2023-04-07T07:25:20.177Z,86.90
2023-04-07T07:30:18.363Z,86.30
2023-04-07T07:35:17.587Z,87.70
2023-04-07T07:40:16.240Z,86.90
2023-04-07T07:52:05.440Z,87.00
2023-04-07T07:57:04.846Z,82.60
2023-04-07T08:02:03.365Z,81.70
2023-04-07T08:07:01.518Z,87.20
2023-04-07T08:12:02.601Z,84.40
2023-04-07T08:17:01.189Z,84.70
2023-04-07T08:21:59.309Z,83.80
2023-04-07T08:26:57.580Z,81.90
2023-04-07T08:31:57.119Z,82.30
2023-04-07T08:36:55.944Z,81.60
2023-04-07T08:41:56.314Z,78.00
2023-04-07T08:46:59.119Z,81.20
2023-04-07T08:52:00.894Z,77.80
2023-04-07T08:56:59.160Z,77.10
2023-04-07T09:01:58.996Z,79.30
2023-04-07T09:06:57.124Z,78.40
2023-04-07T09:11:55.782Z,79.10
2023-04-07T09:16:55.990Z,74.50
2023-04-07T09:21:55.988Z,75.40
2023-04-07T09:27:11.147Z,77.00
2023-04-07T09:32:09.787Z,76.50
2023-04-07T09:37:10.702Z,75.00
2023-04-07T09:42:09.357Z,71.70
2023-04-07T09:47:07.545Z,67.70
2023-04-07T09:52:08.023Z,68.70
2023-04-07T09:57:09.321Z,70.70
2023-04-07T10:02:09.219Z,70.00
2023-04-07T10:07:08.145Z,68.00
2023-04-07T10:12:08.701Z,71.60
2023-04-07T10:17:07.776Z,66.00
2023-04-07T10:22:08.169Z,68.00
2023-04-07T10:27:12.547Z,66.40
2023-04-07T10:32:11.082Z,65.10
2023-04-07T10:37:11.510Z,68.20
2023-04-07T10:42:52.357Z,65.30
2023-04-07T10:48:12.000Z,64.50
2023-04-07T10:53:12.535Z,65.10
2023-04-07T10:58:25.768Z,65.00
2023-04-07T11:03:24.540Z,62.30
2023-04-07T11:08:35.902Z,66.50
2023-04-07T11:13:42.546Z,63.50
2023-04-07T11:18:42.205Z,63.20
2023-04-07T11:23:41.376Z,65.20
2023-04-07T11:28:48.819Z,62.80
2023-04-07T11:33:55.014Z,61.90
2023-04-07T11:38:53.633Z,62.80
2023-04-07T11:44:05.923Z,61.10
2023-04-07T11:49:13.043Z,59.00
2023-04-07T11:54:12.173Z,60.10
2023-04-07T11:59:23.717Z,58.30
2023-04-07T12:04:22.414Z,59.90
2023-04-07T12:09:29.414Z,60.20
2023-04-07T12:14:29.664Z,58.70
2023-04-07T12:19:29.195Z,61.10
2023-04-07T12:24:27.423Z,60.00
2023-04-07T12:29:25.583Z,59.20
2023-04-07T12:34:25.456Z,58.90
2023-04-07T12:39:23.992Z,58.30
2023-04-07T12:44:22.497Z,56.00
2023-04-07T12:49:20.951Z,55.70
2023-04-07T12:54:20.414Z,55.10
2023-04-07T12:59:19.195Z,57.10
2023-04-07T13:04:18.263Z,56.50
2023-04-07T13:09:16.483Z,56.30
2023-04-07T13:14:16.638Z,56.60
2023-04-07T13:19:15.150Z,56.40
2023-04-07T13:24:13.249Z,57.20
2023-04-07T13:29:12.048Z,57.00
2023-04-07T13:34:12.100Z,58.40
2023-04-07T13:39:10.415Z,59.00
2023-04-07T13:44:09.196Z,58.60
2023-04-07T13:49:07.843Z,58.10
2023-04-07T13:54:07.891Z,58.20
2023-04-07T13:59:06.745Z,58.20
2023-04-07T14:04:05.370Z,58.60
2023-04-07T14:09:03.942Z,59.60
2023-04-07T14:14:03.428Z,59.30
2023-04-07T14:19:02.241Z,60.80
2023-04-07T14:24:01.487Z,61.60
2023-04-07T14:28:59.576Z,62.00
2023-04-07T14:33:59.696Z,63.80
2023-04-07T14:38:58.706Z,65.40
2023-04-07T14:43:56.833Z,66.60
2023-04-07T14:48:55.320Z,67.90
2023-04-07T14:53:56.375Z,68.50
2023-04-07T14:58:54.476Z,67.40
2023-04-07T15:03:54.060Z,68.60
2023-04-07T15:08:54.086Z,69.00
2023-04-07T15:13:52.176Z,69.50
2023-04-07T15:18:51.410Z,68.90
2023-04-07T15:23:49.705Z,68.80
2023-04-07T15:28:49.671Z,68.60
2023-04-07T15:33:48.478Z,69.80
2023-04-07T15:38:47.679Z,70.20
2023-04-07T15:43:46.577Z,70.80
2023-04-07T15:48:48.462Z,70.80
2023-04-07T15:53:46.692Z,73.20
2023-04-07T15:58:46.482Z,73.70
2023-04-07T16:03:46.433Z,74.60
2023-04-07T16:08:44.627Z,74.20
2023-04-07T16:13:43.079Z,75.80
2023-04-07T16:18:41.207Z,75.40
2023-04-07T16:23:41.154Z,76.30
2023-04-07T16:28:42.241Z,77.20
2023-04-07T16:33:40.554Z,77.40
2023-04-07T16:38:40.411Z,78.30
2023-04-07T16:43:38.919Z,79.80
2023-04-07T16:48:37.124Z,79.90
2023-04-07T16:53:35.217Z,79.70
2023-04-07T16:58:35.352Z,81.40
2023-04-07T17:03:34.008Z,80.50
2023-04-07T17:08:32.320Z,82.60
2023-04-07T17:13:31.315Z,83.80
2023-04-07T17:18:31.548Z,83.00
2023-04-07T17:23:29.678Z,83.20
2023-04-07T17:28:30.246Z,84.60
2023-04-07T17:34:18.771Z,85.30
2023-04-07T17:39:18.340Z,85.50
2023-04-07T17:44:16.495Z,87.00
2023-04-07T17:49:14.663Z,87.20
2023-04-07T17:54:12.766Z,88.50
2023-04-07T17:59:12.887Z,88.60
2023-04-07T18:04:11.473Z,87.80
2023-04-07T18:09:10.227Z,88.70
2023-04-07T18:14:09.035Z,89.10
2023-04-07T18:19:08.770Z,89.50
2023-04-07T18:24:06.841Z,90.50
2023-04-07T18:29:10.064Z,91.00
2023-04-07T18:34:10.165Z,91.20
2023-04-07T18:39:08.552Z,91.50
2023-04-07T18:44:07.737Z,90.70
2023-04-07T18:49:06.118Z,90.70
2023-04-07T18:54:05.618Z,90.90
2023-04-07T18:59:04.358Z,91.20
2023-04-07T19:04:03.334Z,91.00
2023-04-07T19:09:01.843Z,91.80
2023-04-07T19:14:01.792Z,91.30
2023-04-07T19:18:59.869Z,92.00
2023-04-07T19:23:59.773Z,92.00
2023-04-07T19:28:58.496Z,92.40
2023-04-07T19:33:58.873Z,92.20
2023-04-07T19:38:57.210Z,92.90
2023-04-07T19:43:55.315Z,93.40
2023-04-07T19:48:53.983Z,93.20
2023-04-07T19:53:53.761Z,93.60
2023-04-07T19:58:52.229Z,92.90
2023-04-07T20:03:50.670Z,93.30
2023-04-07T20:08:49.153Z,93.50
2023-04-07T20:13:49.354Z,94.00
2023-04-07T20:18:48.464Z,95.30
2023-04-07T20:23:47.090Z,95.30
2023-04-07T20:28:45.722Z,94.80
2023-04-07T20:33:45.494Z,95.30
2023-04-07T20:38:44.948Z,96.20
2023-04-07T20:43:43.499Z,95.70
2023-04-07T20:48:41.923Z,96.10
2023-04-07T20:53:41.624Z,95.60
2023-04-07T20:58:40.132Z,96.50
2023-04-07T21:03:38.860Z,96.40
2023-04-07T21:08:36.984Z,97.00
2023-04-07T21:13:37.033Z,96.90
2023-04-07T21:18:36.021Z,96.80
2023-04-07T21:23:34.435Z,97.40
2023-04-07T21:28:32.877Z,97.30
2023-04-07T21:33:32.925Z,97.50
2023-04-07T21:38:31.864Z,98.20
2023-04-07T21:43:29.978Z,99.20
2023-04-07T21:48:29.577Z,99.00
2023-04-07T21:53:29.400Z,98.90
2023-04-07T21:58:27.890Z,99.40
2023-04-07T22:03:26.563Z,99.30
2023-04-07T22:08:24.767Z,99.10
2023-04-07T22:13:24.988Z,99.50
2023-04-07T22:18:23.478Z,99.90
2023-04-07T22:23:21.919Z,99.30
2023-04-07T22:28:20.346Z,99.10
2023-04-07T22:33:19.792Z,98.80
2023-04-07T22:38:18.613Z,98.60
2023-04-07T22:43:17.248Z,99.30
2023-04-07T22:48:15.924Z,99.20
2023-04-07T22:53:15.711Z,99.80
2023-04-07T22:58:14.299Z,99.90
2023-04-07T23:03:12.495Z,99.90
2023-04-07T23:08:11.543Z,99.90
2023-04-07T23:13:11.414Z,99.90
2023-04-07T23:18:09.914Z,99.90
2023-04-07T23:23:08.400Z,99.90
2023-04-07T23:28:06.861Z,99.90
2023-04-07T23:33:06.998Z,99.90
2023-04-07T23:38:05.526Z,99.90
2023-04-07T23:43:04.045Z,99.90
2023-04-07T23:48:02.521Z,99.90
2023-04-07T23:53:03.281Z,99.90
2023-04-07T23:58:01.500Z,99.90
